DAAT/TMR METAR and TAF weather

Enter ICAO airport designator
Station Type Date Time Source
DAAT METAR 2020/06/06 15:30 UTC NOAA

DAAT 061530Z VRB06KT 2000 TS HZ FEW040CB SCT046TCU 36/01 Q1020


Station Type Date Time Source
DAAT Decoded METAR 2020/06/06 15:30 UTC NOAA

Tamanrasset / Aguenna, Algeria (DAAT) 22-49N 005-28E
Jun 06, 2020 - 11:30 AM EDT / 2020.06.06 1530 UTC
Wind: Variable at 7 MPH (6 KT):0
Visibility: 1 mile(s):0
Sky conditions: partly cloudy
Weather: thunder; haze; Cumulonimbus clouds, towering cumulus clouds observed
Temperature: 96 F (36 C)
Dew Point: 33 F (1 C)
Relative Humidity: 11%
Pressure (altimeter): 30.12 in. Hg (1020 hPa)
ob: DAAT 061530Z VRB06KT 2000 TS HZ FEW040CB SCT046TCU 36/01 Q1020
cycle: 15

Station Type Date Time Source
DAAT TAF 2020/06/06 12:33 UTC NOAA

TAF DAAT 061100Z 0612/0712 30008KT 0200 HZ FEW040 PROB40
TEMPO 0613/0618 3000 -TSRA SCT040TCU FEW046CB
BECMG 0617/0620 6000 NSW

Example: see airport list